sensor_id;sensor_type;location;lat;lon;timestamp;temperature;humidity
14014;DHT22;49110;52.584;13.408;2023-04-06T00:00:23;6.50;88.80
14014;DHT22;49110;52.584;13.408;2023-04-06T00:01:24;6.50;89.10
14014;DHT22;49110;52.584;13.408;2023-04-06T00:02:25;6.50;90.00
14014;DHT22;49110;52.584;13.408;2023-04-06T00:03:28;6.60;89.40
14014;DHT22;49110;52.584;13.408;2023-04-06T00:04:28;6.60;89.00
14014;DHT22;49110;52.584;13.408;2023-04-06T00:05:29;6.60;89.00
14014;DHT22;49110;52.584;13.408;2023-04-06T00:06:30;6.60;88.80
14014;DHT22;49110;52.584;13.408;2023-04-06T00:07:32;6.50;88.10
14014;DHT22;49110;52.584;13.408;2023-04-06T00:08:33;6.60;88.50
14014;DHT22;49110;52.584;13.408;2023-04-06T00:09:34;6.60;89.30
14014;DHT22;49110;52.584;13.408;2023-04-06T00:10:34;6.50;88.00
14014;DHT22;49110;52.584;13.408;2023-04-06T00:11:35;6.50;88.40
14014;DHT22;49110;52.584;13.408;2023-04-06T00:12:36;6.50;88.50
14014;DHT22;49110;52.584;13.408;2023-04-06T00:13:36;6.60;88.50
14014;DHT22;49110;52.584;13.408;2023-04-06T00:14:37;6.50;88.50
14014;DHT22;49110;52.584;13.408;2023-04-06T00:15:37;6.50;88.30
14014;DHT22;49110;52.584;13.408;2023-04-06T00:16:38;6.50;88.30
14014;DHT22;49110;52.584;13.408;2023-04-06T00:17:38;6.50;88.70
14014;DHT22;49110;52.584;13.408;2023-04-06T00:18:39;6.50;88.60
14014;DHT22;49110;52.584;13.408;2023-04-06T00:19:39;6.50;88.30
14014;DHT22;49110;52.584;13.408;2023-04-06T00:20:40;6.50;88.40
14014;DHT22;49110;52.584;13.408;2023-04-06T00:21:41;6.50;88.80
14014;DHT22;49110;52.584;13.408;2023-04-06T00:22:41;6.50;89.90
14014;DHT22;49110;52.584;13.408;2023-04-06T00:23:42;6.40;88.80
14014;DHT22;49110;52.584;13.408;2023-04-06T00:24:42;6.40;88.70
14014;DHT22;49110;52.584;13.408;2023-04-06T00:25:43;6.40;89.10
14014;DHT22;49110;52.584;13.408;2023-04-06T00:26:43;6.40;88.50
14014;DHT22;49110;52.584;13.408;2023-04-06T00:27:44;6.40;87.80
14014;DHT22;49110;52.584;13.408;2023-04-06T00:28:44;6.40;87.80
14014;DHT22;49110;52.584;13.408;2023-04-06T00:29:45;6.30;88.10
14014;DHT22;49110;52.584;13.408;2023-04-06T00:30:45;6.30;88.40
14014;DHT22;49110;52.584;13.408;2023-04-06T00:31:46;6.30;88.20
14014;DHT22;49110;52.584;13.408;2023-04-06T00:32:46;6.30;88.60
14014;DHT22;49110;52.584;13.408;2023-04-06T00:33:48;6.30;88.60
14014;DHT22;49110;52.584;13.408;2023-04-06T00:34:48;6.30;88.60
14014;DHT22;49110;52.584;13.408;2023-04-06T00:35:49;6.30;88.90
14014;DHT22;49110;52.584;13.408;2023-04-06T00:36:50;6.30;88.70
14014;DHT22;49110;52.584;13.408;2023-04-06T00:37:50;6.20;88.90
14014;DHT22;49110;52.584;13.408;2023-04-06T00:38:51;6.20;89.60
14014;DHT22;49110;52.584;13.408;2023-04-06T00:39:51;6.30;89.50
14014;DHT22;49110;52.584;13.408;2023-04-06T00:40:52;6.30;89.40
14014;DHT22;49110;52.584;13.408;2023-04-06T00:41:53;6.30;88.70
14014;DHT22;49110;52.584;13.408;2023-04-06T00:42:54;6.20;88.40
14014;DHT22;49110;52.584;13.408;2023-04-06T00:43:56;6.20;88.20
14014;DHT22;49110;52.584;13.408;2023-04-06T00:44:58;6.20;89.00
14014;DHT22;49110;52.584;13.408;2023-04-06T00:45:59;6.20;89.40
14014;DHT22;49110;52.584;13.408;2023-04-06T00:46:59;6.30;90.00
14014;DHT22;49110;52.584;13.408;2023-04-06T00:48:00;6.30;89.60
14014;DHT22;49110;52.584;13.408;2023-04-06T00:49:02;6.30;90.10
14014;DHT22;49110;52.584;13.408;2023-04-06T00:50:02;6.40;90.20
14014;DHT22;49110;52.584;13.408;2023-04-06T00:51:03;6.40;90.30
14014;DHT22;49110;52.584;13.408;2023-04-06T00:52:03;6.40;90.00
14014;DHT22;49110;52.584;13.408;2023-04-06T00:53:04;6.40;89.80
14014;DHT22;49110;52.584;13.408;2023-04-06T00:54:04;6.40;89.70
14014;DHT22;49110;52.584;13.408;2023-04-06T00:55:05;6.50;88.10
14014;DHT22;49110;52.584;13.408;2023-04-06T00:56:06;6.50;88.70
14014;DHT22;49110;52.584;13.408;2023-04-06T00:57:11;6.40;87.60
14014;DHT22;49110;52.584;13.408;2023-04-06T00:58:12;6.40;87.20
14014;DHT22;49110;52.584;13.408;2023-04-06T00:59:13;6.40;87.30
14014;DHT22;49110;52.584;13.408;2023-04-06T01:00:14;6.30;87.40
14014;DHT22;49110;52.584;13.408;2023-04-06T01:01:14;6.30;87.20
14014;DHT22;49110;52.584;13.408;2023-04-06T01:02:15;6.20;87.30
14014;DHT22;49110;52.584;13.408;2023-04-06T01:03:16;6.20;87.20
14014;DHT22;49110;52.584;13.408;2023-04-06T01:04:16;6.30;87.80
14014;DHT22;49110;52.584;13.408;2023-04-06T01:05:17;6.20;87.80
14014;DHT22;49110;52.584;13.408;2023-04-06T01:06:17;6.20;87.70
14014;DHT22;49110;52.584;13.408;2023-04-06T01:07:18;6.30;87.80
14014;DHT22;49110;52.584;13.408;2023-04-06T01:08:18;6.20;87.90
14014;DHT22;49110;52.584;13.408;2023-04-06T01:09:19;6.30;88.60
14014;DHT22;49110;52.584;13.408;2023-04-06T01:10:24;6.20;87.80
14014;DHT22;49110;52.584;13.408;2023-04-06T01:11:25;6.30;87.70
14014;DHT22;49110;52.584;13.408;2023-04-06T01:12:26;6.20;87.10
14014;DHT22;49110;52.584;13.408;2023-04-06T01:13:26;6.20;87.30
14014;DHT22;49110;52.584;13.408;2023-04-06T01:14:27;6.20;88.60
14014;DHT22;49110;52.584;13.408;2023-04-06T01:15:28;6.20;87.60
14014;DHT22;49110;52.584;13.408;2023-04-06T01:16:29;6.20;87.30
14014;DHT22;49110;52.584;13.408;2023-04-06T01:17:30;6.20;87.10
14014;DHT22;49110;52.584;13.408;2023-04-06T01:18:31;6.20;87.00
14014;DHT22;49110;52.584;13.408;2023-04-06T01:19:31;6.20;87.80
14014;DHT22;49110;52.584;13.408;2023-04-06T01:20:32;6.20;87.30
14014;DHT22;49110;52.584;13.408;2023-04-06T01:21:32;6.20;88.20
14014;DHT22;49110;52.584;13.408;2023-04-06T01:22:33;6.20;87.30
14014;DHT22;49110;52.584;13.408;2023-04-06T01:23:33;6.20;87.10
14014;DHT22;49110;52.584;13.408;2023-04-06T01:24:34;6.20;87.20
14014;DHT22;49110;52.584;13.408;2023-04-06T01:25:34;6.20;87.80
14014;DHT22;49110;52.584;13.408;2023-04-06T01:26:35;6.10;87.80
14014;DHT22;49110;52.584;13.408;2023-04-06T01:27:36;6.10;87.90
14014;DHT22;49110;52.584;13.408;2023-04-06T01:28:36;6.10;87.90
14014;DHT22;49110;52.584;13.408;2023-04-06T01:29:37;6.10;87.50
14014;DHT22;49110;52.584;13.408;2023-04-06T01:30:41;6.10;87.00
14014;DHT22;49110;52.584;13.408;2023-04-06T01:31:42;6.10;87.20
14014;DHT22;49110;52.584;13.408;2023-04-06T01:32:42;6.10;87.20
14014;DHT22;49110;52.584;13.408;2023-04-06T01:33:43;6.00;87.30
14014;DHT22;49110;52.584;13.408;2023-04-06T01:34:43;6.10;87.50
14014;DHT22;49110;52.584;13.408;2023-04-06T01:35:44;6.00;87.00
14014;DHT22;49110;52.584;13.408;2023-04-06T01:36:44;6.00;86.90
14014;DHT22;49110;52.584;13.408;2023-04-06T01:37:45;6.00;86.90
14014;DHT22;49110;52.584;13.408;2023-04-06T01:38:46;5.90;87.00
14014;DHT22;49110;52.584;13.408;2023-04-06T01:39:46;5.90;87.30
14014;DHT22;49110;52.584;13.408;2023-04-06T01:40:47;5.90;87.70
14014;DHT22;49110;52.584;13.408;2023-04-06T01:41:47;5.90;87.80
14014;DHT22;49110;52.584;13.408;2023-04-06T01:42:48;5.90;87.70
14014;DHT22;49110;52.584;13.408;2023-04-06T01:43:48;5.90;88.00
14014;DHT22;49110;52.584;13.408;2023-04-06T01:44:49;5.90;87.80
14014;DHT22;49110;52.584;13.408;2023-04-06T01:45:50;5.90;87.60
14014;DHT22;49110;52.584;13.408;2023-04-06T01:46:51;5.90;87.70
14014;DHT22;49110;52.584;13.408;2023-04-06T01:47:51;5.80;87.70
14014;DHT22;49110;52.584;13.408;2023-04-06T01:48:52;5.80;87.70
14014;DHT22;49110;52.584;13.408;2023-04-06T01:49:52;5.80;87.60
14014;DHT22;49110;52.584;13.408;2023-04-06T01:50:53;5.80;87.70
14014;DHT22;49110;52.584;13.408;2023-04-06T01:51:54;5.80;87.80
14014;DHT22;49110;52.584;13.408;2023-04-06T01:52:55;5.80;88.00
14014;DHT22;49110;52.584;13.408;2023-04-06T01:53:55;5.80;87.80
14014;DHT22;49110;52.584;13.408;2023-04-06T01:54:56;5.70;87.60
14014;DHT22;49110;52.584;13.408;2023-04-06T01:55:56;5.70;88.10
14014;DHT22;49110;52.584;13.408;2023-04-06T01:56:57;5.80;87.60
14014;DHT22;49110;52.584;13.408;2023-04-06T01:57:57;5.80;87.50
14014;DHT22;49110;52.584;13.408;2023-04-06T01:58:57;5.80;87.70
14014;DHT22;49110;52.584;13.408;2023-04-06T01:59:58;5.80;87.80
14014;DHT22;49110;52.584;13.408;2023-04-06T02:00:59;5.80;87.60
14014;DHT22;49110;52.584;13.408;2023-04-06T02:01:59;5.80;87.20
14014;DHT22;49110;52.584;13.408;2023-04-06T02:02:59;5.90;87.80
14014;DHT22;49110;52.584;13.408;2023-04-06T02:04:00;5.90;87.20
14014;DHT22;49110;52.584;13.408;2023-04-06T02:05:01;5.80;88.20
14014;DHT22;49110;52.584;13.408;2023-04-06T02:06:01;5.90;88.50
14014;DHT22;49110;52.584;13.408;2023-04-06T02:07:02;5.80;88.20
14014;DHT22;49110;52.584;13.408;2023-04-06T02:08:02;5.90;88.20
14014;DHT22;49110;52.584;13.408;2023-04-06T02:09:02;5.90;88.40
14014;DHT22;49110;52.584;13.408;2023-04-06T02:10:11;5.90;88.40
14014;DHT22;49110;52.584;13.408;2023-04-06T02:11:11;5.90;89.30
14014;DHT22;49110;52.584;13.408;2023-04-06T02:12:12;5.90;88.60
14014;DHT22;49110;52.584;13.408;2023-04-06T02:13:12;5.90;88.30
14014;DHT22;49110;52.584;13.408;2023-04-06T02:14:13;5.90;87.80
14014;DHT22;49110;52.584;13.408;2023-04-06T02:15:14;5.90;88.10
14014;DHT22;49110;52.584;13.408;2023-04-06T02:16:14;5.90;88.60
14014;DHT22;49110;52.584;13.408;2023-04-06T02:17:16;5.90;89.60
14014;DHT22;49110;52.584;13.408;2023-04-06T02:18:16;5.80;88.60
14014;DHT22;49110;52.584;13.408;2023-04-06T02:19:18;5.90;88.40
14014;DHT22;49110;52.584;13.408;2023-04-06T02:20:18;5.90;87.90
14014;DHT22;49110;52.584;13.408;2023-04-06T02:21:19;5.90;88.00
14014;DHT22;49110;52.584;13.408;2023-04-06T02:22:20;5.80;87.90
14014;DHT22;49110;52.584;13.408;2023-04-06T02:23:20;5.80;88.20
14014;DHT22;49110;52.584;13.408;2023-04-06T02:24:21;5.80;88.20
14014;DHT22;49110;52.584;13.408;2023-04-06T02:25:21;5.70;88.40
14014;DHT22;49110;52.584;13.408;2023-04-06T02:26:22;5.70;88.30
14014;DHT22;49110;52.584;13.408;2023-04-06T02:27:22;5.70;88.60
14014;DHT22;49110;52.584;13.408;2023-04-06T02:28:24;5.70;89.00
14014;DHT22;49110;52.584;13.408;2023-04-06T02:29:24;5.80;88.80
14014;DHT22;49110;52.584;13.408;2023-04-06T02:30:25;5.90;89.70
14014;DHT22;49110;52.584;13.408;2023-04-06T02:31:26;5.90;90.00
14014;DHT22;49110;52.584;13.408;2023-04-06T02:32:26;5.90;90.10
14014;DHT22;49110;52.584;13.408;2023-04-06T02:33:27;5.90;90.10
14014;DHT22;49110;52.584;13.408;2023-04-06T02:34:27;6.00;90.10
14014;DHT22;49110;52.584;13.408;2023-04-06T02:35:29;6.00;89.60
14014;DHT22;49110;52.584;13.408;2023-04-06T02:36:30;6.00;89.50
14014;DHT22;49110;52.584;13.408;2023-04-06T02:37:31;6.00;90.10
14014;DHT22;49110;52.584;13.408;2023-04-06T02:38:31;6.00;90.00
14014;DHT22;49110;52.584;13.408;2023-04-06T02:39:31;6.00;89.80
14014;DHT22;49110;52.584;13.408;2023-04-06T02:40:32;6.00;88.70
14014;DHT22;49110;52.584;13.408;2023-04-06T02:41:32;5.90;88.40
14014;DHT22;49110;52.584;13.408;2023-04-06T02:42:33;5.90;88.40
14014;DHT22;49110;52.584;13.408;2023-04-06T02:43:35;5.90;88.50
14014;DHT22;49110;52.584;13.408;2023-04-06T02:44:35;5.90;88.90
14014;DHT22;49110;52.584;13.408;2023-04-06T02:45:36;5.90;90.00
14014;DHT22;49110;52.584;13.408;2023-04-06T02:46:36;5.90;90.00
14014;DHT22;49110;52.584;13.408;2023-04-06T02:47:37;5.80;89.20
14014;DHT22;49110;52.584;13.408;2023-04-06T02:48:37;5.80;88.90
14014;DHT22;49110;52.584;13.408;2023-04-06T02:49:38;5.80;89.00
14014;DHT22;49110;52.584;13.408;2023-04-06T02:50:38;5.80;89.60
14014;DHT22;49110;52.584;13.408;2023-04-06T02:51:38;5.80;90.40
14014;DHT22;49110;52.584;13.408;2023-04-06T02:52:39;5.80;90.50
14014;DHT22;49110;52.584;13.408;2023-04-06T02:53:40;5.80;90.00
14014;DHT22;49110;52.584;13.408;2023-04-06T02:54:40;5.70;90.20
14014;DHT22;49110;52.584;13.408;2023-04-06T02:55:41;5.60;89.80
14014;DHT22;49110;52.584;13.408;2023-04-06T02:56:41;5.60;89.30
14014;DHT22;49110;52.584;13.408;2023-04-06T02:57:42;5.60;89.20
14014;DHT22;49110;52.584;13.408;2023-04-06T02:58:42;5.50;89.00
14014;DHT22;49110;52.584;13.408;2023-04-06T02:59:43;5.50;89.60
14014;DHT22;49110;52.584;13.408;2023-04-06T03:00:43;5.40;90.20
14014;DHT22;49110;52.584;13.408;2023-04-06T03:01:43;5.40;90.20
14014;DHT22;49110;52.584;13.408;2023-04-06T03:02:44;5.50;90.30
14014;DHT22;49110;52.584;13.408;2023-04-06T03:03:45;5.40;90.00
14014;DHT22;49110;52.584;13.408;2023-04-06T03:04:45;5.40;90.10
14014;DHT22;49110;52.584;13.408;2023-04-06T03:05:46;5.40;90.20
14014;DHT22;49110;52.584;13.408;2023-04-06T03:06:47;5.40;90.20
14014;DHT22;49110;52.584;13.408;2023-04-06T03:07:48;5.40;90.30
14014;DHT22;49110;52.584;13.408;2023-04-06T03:08:48;5.40;90.70
14014;DHT22;49110;52.584;13.408;2023-04-06T03:09:49;5.40;90.80
14014;DHT22;49110;52.584;13.408;2023-04-06T03:10:50;5.50;90.90
14014;DHT22;49110;52.584;13.408;2023-04-06T03:11:50;5.50;90.50
14014;DHT22;49110;52.584;13.408;2023-04-06T03:12:51;5.50;90.50
14014;DHT22;49110;52.584;13.408;2023-04-06T03:13:51;5.50;90.60
14014;DHT22;49110;52.584;13.408;2023-04-06T03:14:52;5.50;90.70
14014;DHT22;49110;52.584;13.408;2023-04-06T03:15:52;5.50;90.70
14014;DHT22;49110;52.584;13.408;2023-04-06T03:16:53;5.50;90.60
14014;DHT22;49110;52.584;13.408;2023-04-06T03:17:53;5.50;90.70
14014;DHT22;49110;52.584;13.408;2023-04-06T03:18:54;5.50;90.80
14014;DHT22;49110;52.584;13.408;2023-04-06T03:19:54;5.50;90.80
14014;DHT22;49110;52.584;13.408;2023-04-06T03:20:55;5.60;90.90
14014;DHT22;49110;52.584;13.408;2023-04-06T03:21:56;5.50;90.60
14014;DHT22;49110;52.584;13.408;2023-04-06T03:22:56;5.50;90.80
14014;DHT22;49110;52.584;13.408;2023-04-06T03:23:57;5.40;90.60
14014;DHT22;49110;52.584;13.408;2023-04-06T03:24:57;5.40;90.70
14014;DHT22;49110;52.584;13.408;2023-04-06T03:25:57;5.30;90.90
14014;DHT22;49110;52.584;13.408;2023-04-06T03:26:58;5.30;90.90
14014;DHT22;49110;52.584;13.408;2023-04-06T03:27:58;5.30;90.90
14014;DHT22;49110;52.584;13.408;2023-04-06T03:28:59;5.20;90.90
14014;DHT22;49110;52.584;13.408;2023-04-06T03:29:59;5.20;91.10
14014;DHT22;49110;52.584;13.408;2023-04-06T03:31:00;5.20;91.10
14014;DHT22;49110;52.584;13.408;2023-04-06T03:32:00;5.20;91.40
14014;DHT22;49110;52.584;13.408;2023-04-06T03:33:01;5.20;91.60
14014;DHT22;49110;52.584;13.408;2023-04-06T03:34:01;5.20;91.50
14014;DHT22;49110;52.584;13.408;2023-04-06T03:35:02;5.20;91.50
14014;DHT22;49110;52.584;13.408;2023-04-06T03:36:03;5.20;91.80
14014;DHT22;49110;52.584;13.408;2023-04-06T03:37:04;5.30;92.10
14014;DHT22;49110;52.584;13.408;2023-04-06T03:38:05;5.30;91.70
14014;DHT22;49110;52.584;13.408;2023-04-06T03:39:05;5.20;91.60
14014;DHT22;49110;52.584;13.408;2023-04-06T03:40:06;5.20;91.70
14014;DHT22;49110;52.584;13.408;2023-04-06T03:41:07;5.20;91.80
14014;DHT22;49110;52.584;13.408;2023-04-06T03:42:07;5.20;92.00
14014;DHT22;49110;52.584;13.408;2023-04-06T03:43:08;5.20;91.90
14014;DHT22;49110;52.584;13.408;2023-04-06T03:44:09;5.20;91.80
14014;DHT22;49110;52.584;13.408;2023-04-06T03:45:09;5.10;91.70
14014;DHT22;49110;52.584;13.408;2023-04-06T03:46:10;5.10;91.80
14014;DHT22;49110;52.584;13.408;2023-04-06T03:47:11;5.00;92.00
14014;DHT22;49110;52.584;13.408;2023-04-06T03:48:11;5.00;92.70
14014;DHT22;49110;52.584;13.408;2023-04-06T03:49:11;5.00;92.10
14014;DHT22;49110;52.584;13.408;2023-04-06T03:50:12;5.10;92.10
14014;DHT22;49110;52.584;13.408;2023-04-06T03:51:12;5.10;92.20
14014;DHT22;49110;52.584;13.408;2023-04-06T03:52:13;5.10;92.30
14014;DHT22;49110;52.584;13.408;2023-04-06T03:53:13;5.10;92.30
14014;DHT22;49110;52.584;13.408;2023-04-06T03:54:14;5.10;92.50
14014;DHT22;49110;52.584;13.408;2023-04-06T03:55:15;5.10;92.50
14014;DHT22;49110;52.584;13.408;2023-04-06T03:56:15;5.10;92.40
14014;DHT22;49110;52.584;13.408;2023-04-06T03:57:16;5.10;92.40
14014;DHT22;49110;52.584;13.408;2023-04-06T03:58:16;5.10;92.40
14014;DHT22;49110;52.584;13.408;2023-04-06T03:59:17;5.10;92.30
14014;DHT22;49110;52.584;13.408;2023-04-06T04:00:17;5.10;92.20
14014;DHT22;49110;52.584;13.408;2023-04-06T04:01:18;5.10;92.40
14014;DHT22;49110;52.584;13.408;2023-04-06T04:02:18;5.00;92.40
14014;DHT22;49110;52.584;13.408;2023-04-06T04:03:19;5.10;92.60
14014;DHT22;49110;52.584;13.408;2023-04-06T04:04:19;5.00;92.40
14014;DHT22;49110;52.584;13.408;2023-04-06T04:05:20;5.00;92.40
14014;DHT22;49110;52.584;13.408;2023-04-06T04:06:25;5.00;92.40
14014;DHT22;49110;52.584;13.408;2023-04-06T04:07:25;5.00;92.40
14014;DHT22;49110;52.584;13.408;2023-04-06T04:08:26;5.00;92.70
14014;DHT22;49110;52.584;13.408;2023-04-06T04:09:26;5.00;92.40
14014;DHT22;49110;52.584;13.408;2023-04-06T04:10:27;5.00;92.40
14014;DHT22;49110;52.584;13.408;2023-04-06T04:11:27;5.00;92.60
14014;DHT22;49110;52.584;13.408;2023-04-06T04:12:28;5.00;92.70
14014;DHT22;49110;52.584;13.408;2023-04-06T04:13:28;5.00;92.80
14014;DHT22;49110;52.584;13.408;2023-04-06T04:14:28;5.00;92.80
14014;DHT22;49110;52.584;13.408;2023-04-06T04:15:29;5.00;92.70
14014;DHT22;49110;52.584;13.408;2023-04-06T04:16:30;5.00;92.70
14014;DHT22;49110;52.584;13.408;2023-04-06T04:17:31;5.00;92.80
14014;DHT22;49110;52.584;13.408;2023-04-06T04:18:31;4.90;92.80
14014;DHT22;49110;52.584;13.408;2023-04-06T04:19:32;4.90;92.80
14014;DHT22;49110;52.584;13.408;2023-04-06T04:20:32;4.90;92.90
14014;DHT22;49110;52.584;13.408;2023-04-06T04:21:33;4.90;92.90
14014;DHT22;49110;52.584;13.408;2023-04-06T04:22:33;4.90;93.00
14014;DHT22;49110;52.584;13.408;2023-04-06T04:23:34;4.80;92.90
14014;DHT22;49110;52.584;13.408;2023-04-06T04:24:34;4.90;93.00
14014;DHT22;49110;52.584;13.408;2023-04-06T04:25:35;4.80;93.10
14014;DHT22;49110;52.584;13.408;2023-04-06T04:26:35;4.80;93.20
14014;DHT22;49110;52.584;13.408;2023-04-06T04:27:36;4.80;93.30
14014;DHT22;49110;52.584;13.408;2023-04-06T04:28:36;4.70;93.30
14014;DHT22;49110;52.584;13.408;2023-04-06T04:29:37;4.70;93.30
14014;DHT22;49110;52.584;13.408;2023-04-06T04:30:37;4.70;93.30
14014;DHT22;49110;52.584;13.408;2023-04-06T04:31:38;4.60;93.30
14014;DHT22;49110;52.584;13.408;2023-04-06T04:32:38;4.60;93.50
14014;DHT22;49110;52.584;13.408;2023-04-06T04:33:38;4.50;93.60
14014;DHT22;49110;52.584;13.408;2023-04-06T04:34:39;4.50;93.70
14014;DHT22;49110;52.584;13.408;2023-04-06T04:35:42;4.50;94.10
14014;DHT22;49110;52.584;13.408;2023-04-06T04:36:43;4.50;94.20
14014;DHT22;49110;52.584;13.408;2023-04-06T04:37:43;4.50;93.80
14014;DHT22;49110;52.584;13.408;2023-04-06T04:38:44;4.50;93.90
14014;DHT22;49110;52.584;13.408;2023-04-06T04:39:45;4.50;93.90
14014;DHT22;49110;52.584;13.408;2023-04-06T04:40:45;4.50;93.90
14014;DHT22;49110;52.584;13.408;2023-04-06T04:41:46;4.50;93.90
14014;DHT22;49110;52.584;13.408;2023-04-06T04:42:46;4.50;93.90
14014;DHT22;49110;52.584;13.408;2023-04-06T04:43:47;4.60;94.00
14014;DHT22;49110;52.584;13.408;2023-04-06T04:44:47;4.60;94.00
14014;DHT22;49110;52.584;13.408;2023-04-06T04:45:48;4.60;93.80
14014;DHT22;49110;52.584;13.408;2023-04-06T04:46:48;4.60;93.80
14014;DHT22;49110;52.584;13.408;2023-04-06T04:47:49;4.60;93.90
14014;DHT22;49110;52.584;13.408;2023-04-06T04:48:49;4.50;93.80
14014;DHT22;49110;52.584;13.408;2023-04-06T04:49:50;4.40;94.00
14014;DHT22;49110;52.584;13.408;2023-04-06T04:50:50;4.40;94.20
14014;DHT22;49110;52.584;13.408;2023-04-06T04:51:51;4.40;94.30
14014;DHT22;49110;52.584;13.408;2023-04-06T04:52:52;4.30;94.40
14014;DHT22;49110;52.584;13.408;2023-04-06T04:53:53;4.20;94.50
14014;DHT22;49110;52.584;13.408;2023-04-06T04:54:53;4.20;94.70
14014;DHT22;49110;52.584;13.408;2023-04-06T04:55:54;4.20;94.70
14014;DHT22;49110;52.584;13.408;2023-04-06T04:56:54;4.30;94.80
14014;DHT22;49110;52.584;13.408;2023-04-06T04:57:55;4.30;94.80
14014;DHT22;49110;52.584;13.408;2023-04-06T04:58:55;4.30;94.80
14014;DHT22;49110;52.584;13.408;2023-04-06T04:59:56;4.40;94.90
14014;DHT22;49110;52.584;13.408;2023-04-06T05:00:57;4.40;94.80
14014;DHT22;49110;52.584;13.408;2023-04-06T05:01:57;4.40;94.80
14014;DHT22;49110;52.584;13.408;2023-04-06T05:02:58;4.50;94.90
14014;DHT22;49110;52.584;13.408;2023-04-06T05:03:58;4.50;94.90
14014;DHT22;49110;52.584;13.408;2023-04-06T05:04:59;4.60;94.90
14014;DHT22;49110;52.584;13.408;2023-04-06T05:05:59;4.60;94.70
14014;DHT22;49110;52.584;13.408;2023-04-06T05:07:04;4.70;94.80
14014;DHT22;49110;52.584;13.408;2023-04-06T05:08:05;4.70;94.90
14014;DHT22;49110;52.584;13.408;2023-04-06T05:09:05;4.70;94.80
14014;DHT22;49110;52.584;13.408;2023-04-06T05:10:06;4.70;94.70
14014;DHT22;49110;52.584;13.408;2023-04-06T05:11:07;4.80;94.80
14014;DHT22;49110;52.584;13.408;2023-04-06T05:12:08;4.80;94.80
14014;DHT22;49110;52.584;13.408;2023-04-06T05:13:09;4.80;95.20
14014;DHT22;49110;52.584;13.408;2023-04-06T05:14:09;4.80;94.80
14014;DHT22;49110;52.584;13.408;2023-04-06T05:15:10;4.80;94.90
14014;DHT22;49110;52.584;13.408;2023-04-06T05:16:11;4.90;94.90
14014;DHT22;49110;52.584;13.408;2023-04-06T05:17:11;4.90;94.90
14014;DHT22;49110;52.584;13.408;2023-04-06T05:18:12;4.90;95.00
14014;DHT22;49110;52.584;13.408;2023-04-06T05:19:12;4.90;95.00
14014;DHT22;49110;52.584;13.408;2023-04-06T05:20:13;5.00;94.90
14014;DHT22;49110;52.584;13.408;2023-04-06T05:21:13;5.00;95.00
14014;DHT22;49110;52.584;13.408;2023-04-06T05:22:14;5.00;95.00
14014;DHT22;49110;52.584;13.408;2023-04-06T05:23:17;5.00;94.90
14014;DHT22;49110;52.584;13.408;2023-04-06T05:24:18;5.10;95.00
14014;DHT22;49110;52.584;13.408;2023-04-06T05:25:18;5.10;95.00
14014;DHT22;49110;52.584;13.408;2023-04-06T05:26:19;5.10;95.10
14014;DHT22;49110;52.584;13.408;2023-04-06T05:27:19;5.10;95.20
14014;DHT22;49110;52.584;13.408;2023-04-06T05:28:20;5.20;95.20
14014;DHT22;49110;52.584;13.408;2023-04-06T05:29:21;5.20;95.20
14014;DHT22;49110;52.584;13.408;2023-04-06T05:30:21;5.20;95.40
14014;DHT22;49110;52.584;13.408;2023-04-06T05:31:22;5.20;95.00
14014;DHT22;49110;52.584;13.408;2023-04-06T05:32:23;5.20;95.00
14014;DHT22;49110;52.584;13.408;2023-04-06T05:33:25;5.20;95.00
14014;DHT22;49110;52.584;13.408;2023-04-06T05:34:26;5.20;95.10
14014;DHT22;49110;52.584;13.408;2023-04-06T05:35:26;5.20;95.20
14014;DHT22;49110;52.584;13.408;2023-04-06T05:36:27;5.20;95.20
14014;DHT22;49110;52.584;13.408;2023-04-06T05:37:27;5.20;95.20
14014;DHT22;49110;52.584;13.408;2023-04-06T05:38:28;5.20;95.00
14014;DHT22;49110;52.584;13.408;2023-04-06T05:39:28;5.20;95.50
14014;DHT22;49110;52.584;13.408;2023-04-06T05:40:29;5.30;95.30
14014;DHT22;49110;52.584;13.408;2023-04-06T05:41:29;5.40;95.30
14014;DHT22;49110;52.584;13.408;2023-04-06T05:42:40;5.40;95.20
14014;DHT22;49110;52.584;13.408;2023-04-06T05:43:41;5.50;95.20
14014;DHT22;49110;52.584;13.408;2023-04-06T05:44:42;5.70;95.20
14014;DHT22;49110;52.584;13.408;2023-04-06T05:45:46;5.70;94.80
14014;DHT22;49110;52.584;13.408;2023-04-06T05:46:46;5.70;94.80
14014;DHT22;49110;52.584;13.408;2023-04-06T05:47:47;5.70;94.90
14014;DHT22;49110;52.584;13.408;2023-04-06T05:48:47;5.70;95.00
14014;DHT22;49110;52.584;13.408;2023-04-06T05:49:48;5.60;94.90
14014;DHT22;49110;52.584;13.408;2023-04-06T05:50:49;5.70;95.00
14014;DHT22;49110;52.584;13.408;2023-04-06T05:51:50;5.60;95.00
14014;DHT22;49110;52.584;13.408;2023-04-06T05:52:51;5.60;95.00
14014;DHT22;49110;52.584;13.408;2023-04-06T05:53:51;5.70;95.00
14014;DHT22;49110;52.584;13.408;2023-04-06T05:54:52;5.70;95.00
14014;DHT22;49110;52.584;13.408;2023-04-06T05:55:52;5.70;94.90
14014;DHT22;49110;52.584;13.408;2023-04-06T05:56:53;5.70;94.70
14014;DHT22;49110;52.584;13.408;2023-04-06T05:57:53;5.70;94.60
14014;DHT22;49110;52.584;13.408;2023-04-06T05:58:54;5.70;94.80
14014;DHT22;49110;52.584;13.408;2023-04-06T05:59:54;5.70;94.80
14014;DHT22;49110;52.584;13.408;2023-04-06T06:00:59;5.70;94.60
14014;DHT22;49110;52.584;13.408;2023-04-06T06:02:00;5.80;94.70
14014;DHT22;49110;52.584;13.408;2023-04-06T06:03:01;5.80;94.80
14014;DHT22;49110;52.584;13.408;2023-04-06T06:04:04;5.80;94.80
14014;DHT22;49110;52.584;13.408;2023-04-06T06:05:05;5.80;94.50
14014;DHT22;49110;52.584;13.408;2023-04-06T06:06:05;5.90;94.40
14014;DHT22;49110;52.584;13.408;2023-04-06T06:07:06;5.90;94.40
14014;DHT22;49110;52.584;13.408;2023-04-06T06:08:07;5.90;94.30
14014;DHT22;49110;52.584;13.408;2023-04-06T06:09:07;5.90;94.60
14014;DHT22;49110;52.584;13.408;2023-04-06T06:10:09;5.90;94.70
14014;DHT22;49110;52.584;13.408;2023-04-06T06:11:09;5.90;94.70
14014;DHT22;49110;52.584;13.408;2023-04-06T06:12:10;6.00;94.50
14014;DHT22;49110;52.584;13.408;2023-04-06T06:13:10;6.00;94.20
14014;DHT22;49110;52.584;13.408;2023-04-06T06:14:11;6.00;94.00
14014;DHT22;49110;52.584;13.408;2023-04-06T06:15:11;6.00;94.00
14014;DHT22;49110;52.584;13.408;2023-04-06T06:16:12;6.00;94.30
14014;DHT22;49110;52.584;13.408;2023-04-06T06:17:12;6.10;94.00
14014;DHT22;49110;52.584;13.408;2023-04-06T06:18:15;6.10;94.10
14014;DHT22;49110;52.584;13.408;2023-04-06T06:19:16;6.10;94.10
14014;DHT22;49110;52.584;13.408;2023-04-06T06:20:16;6.10;94.20
14014;DHT22;49110;52.584;13.408;2023-04-06T06:21:17;6.20;93.70
14014;DHT22;49110;52.584;13.408;2023-04-06T06:22:17;6.20;93.90
14014;DHT22;49110;52.584;13.408;2023-04-06T06:23:18;6.20;94.00